Aviation Digital Data Service (ADDS)

Output produced by METARs form (0006 UTC 08 July 2015)
found at http://www.aviationweather.gov/adds/metars/
 
KSEG 072353Z AUTO 18003KT 6SM HZ CLR 27/21 A2994 RMK AO2 SLP136 T02720206 10300 20272 55002
KSEG 072253Z AUTO 19007KT 6SM HZ CLR 28/21 A2994 RMK AO2 SLP134 T02830211
KSEG 072153Z AUTO 19007G14KT 6SM HZ CLR 29/21 A2994 RMK AO2 SLP136 T02890211
KSEG 072053Z AUTO 21007KT 170V260 6SM HZ CLR 30/21 A2995 RMK AO2 SLP138 T03000211 56014
KSEG 071953Z AUTO 21007KT 6SM HZ CLR 30/20 A2996 RMK AO2 SLP141 T03000200
KSEG 071853Z AUTO VRB06KT 6SM HZ FEW040 29/21 A2997 RMK AO2 SLP145 T02940206
KSEG 071753Z AUTO VRB05KT 7SM CLR 29/21 A2999 RMK AO2 SLP152 60001 T02890206 10289 20228 58015
KSEG 071653Z AUTO VRB04KT 8SM FEW037 FEW060 28/22 A3001 RMK AO2 RAB23E37 SLP159 P0001 T02780217
KSEG 071629Z AUTO VRB04KT 3SM -RA SCT023 BKN033 OVC055 25/21 A3002 RMK AO2 RAB23 P0001 T02500206 TSNO
KSEG 071613Z AUTO 28005KT 8SM BKN022 BKN036 BKN100 27/22 A3002 RMK AO2 T02720217
KSEG 071553Z AUTO 27003KT 8SM FEW023 BKN110 27/22 A3002 RMK AO2 RAE1454 SLP163 P0000 T02720217 TSNO
KSEG 071453Z AUTO 00000KT 8SM -RA FEW025 BKN070 OVC090 24/21 A3004 RMK AO2 RAB39 SLP168 P0000 60000 T02440211 56000
KSEG 071451Z AUTO VRB04KT 7SM -RA SCT025 SCT048 OVC070 24/22 A3004 RMK AO2 RAB39 P0000
KSEG 071405Z AUTO 21005KT 9SM SCT013 SCT020 BKN026 26/22 A3003 RMK AO2 T02560217
KSEG 071353Z AUTO VRB04KT 9SM BKN013 25/22 A3003 RMK AO2 SLP167 T02500217
KSEG 071327Z AUTO 17005KT 8SM FEW012 SCT021 SCT027 24/22 A3003 RMK AO2 T02440217
KSEG 071253Z AUTO VRB03KT 7SM FEW010 BKN016 BKN021 24/22 A3004 RMK AO2 SLP168 T02440217
KSEG 071245Z AUTO 20004KT 7SM FEW008 BKN012 BKN017 24/22 A3004 RMK AO2 T02390217
KSEG 071222Z AUTO 19003KT 4SM BR BKN006 OVC065 23/22 A3004 RMK AO2 CIG 005V011 T02330217
KSEG 071153Z AUTO 18003KT 4SM BR FEW009 FEW013 BKN060 23/22 A3003 RMK AO2 SLP166 70039 T02280217 10228 20222 51004
KSEG 071149Z AUTO 00000KT 4SM BR FEW009 BKN060 23/22 A3003 RMK AO2
KSEG 071138Z AUTO 00000KT 4SM BR SCT011 BKN032 OVC060 23/22 A3004 RMK AO2 T02280217
KSEG 071128Z AUTO VRB03KT 4SM BR BKN010 BKN019 OVC034 23/22 A3004 RMK AO2 T02280217
KSEG 071116Z AUTO 21004KT 4SM BR SCT010 BKN027 OVC055 23/22 A3004 RMK AO2 T02280217
KSEG 071100Z AUTO VRB04KT 3SM BR FEW005 BKN009 OVC055 23/21 A3004 RMK AO2 T02280211
KSEG 071053Z AUTO 00000KT 3SM BR SCT006 BKN011 OVC055 23/22 A3003 RMK AO2 SLP166 T02280217
KSEG 071015Z AUTO 00000KT 3SM BR FEW008 OVC012 23/22 A3002 RMK AO2 T02280217
KSEG 070953Z AUTO 00000KT 5SM BR OVC012 23/22 A3002 RMK AO2 SLP162 T02280217
KSEG 070934Z AUTO 00000KT 6SM BR BKN007 OVC013 22/22 A3002 RMK AO2 CIG 004V010 T02220217
KSEG 070907Z AUTO 00000KT 5SM BR BKN005 OVC012 23/22 A3001 RMK AO2 T02280217
KSEG 070853Z AUTO 00000KT 4SM BR FEW007 OVC012 22/22 A3000 RMK AO2 SLP157 T02220217 58004 TSNO
KSEG 070823Z AUTO 00000KT 5SM BR SCT009 OVC013 22/22 A3001 RMK AO2 T02220217
KSEG 070810Z AUTO 00000KT 5SM BR SCT009 OVC015 22/21 A3001 RMK AO2 T02220211
KSEG 070753Z AUTO 00000KT 5SM BR OVC015 22/21 A3001 RMK AO2 SLP159 T02220211
KSEG 070741Z AUTO 00000KT 6SM BR OVC015 22/21 A3001 RMK AO2 T02220211
KSEG 070730Z AUTO 00000KT 6SM BR OVC013 22/21 A3001 RMK AO2 T02220211
KSEG 070653Z AUTO 00000KT 5SM BR OVC018 22/21 A3001 RMK AO2 SLP159 T02220211
KSEG 070553Z AUTO 00000KT 8SM BKN022 BKN041 22/21 A3002 RMK AO2 RAB0455E20 SLP161 P0037 60039 T02220211 10256 20217 56005
KSEG 070537Z AUTO 00000KT 9SM SCT020 SCT028 BKN041 22/21 A3002 RMK AO2 RAB0455E20 P0037 T02220211
KSEG 070515Z AUTO VRB03KT 3SM -RA BR SCT015 BKN025 BKN055 22/21 A3002 RMK AO2 RAB0455 P0037 T02220211
KSEG 070513Z AUTO 00000KT 1 1/2SM -RA BR SCT015 BKN025 OVC090 22/21 A3002 RMK AO2 RAB0455 P0037 T02220211
KSEG 070501Z AUTO VRB04KT 3/4SM +RA BR OVC016 23/22 A3003 RMK AO2 RAB0455 P0023 T02280217
KSEG 070459Z AUTO VRB05KT 1 1/2SM -RA BR FEW011 OVC018 23/22 A3003 RMK AO2 RAB55 P0013 T02280217
KSEG 070453Z AUTO 23003KT 6SM BR OVC018 23/22 A3002 RMK AO2 RAB29E51 SLP163 P0000 T02280222 402890183
KSEG 070353Z AUTO 00000KT 6SM BR BKN021 BKN031 OVC042 23/22 A3003 RMK AO2 RAB08E26 SLP166 P0002 T02330217
KSEG 070319Z AUTO 00000KT 4SM -RA BR BKN023 BKN028 OVC044 23/22 A3003 RMK AO2 RAB08 P0002 T02330217
KSEG 070253Z AUTO 16006KT 10SM FEW036 OVC085 24/21 A3004 RMK AO2 RAB26E40 SLP168 P0000 60000 T02390211 56001
KSEG 070153Z AUTO 14005KT 10SM FEW032 SCT038 BKN090 24/22 A3004 RMK AO2 SLP168 T02440217
KSEG 070053Z AUTO 00000KT 10SM CLR 24/22 A3003 RMK AO2 LTG DSNT SW AND W SLP164 T02440217
KSEG 062353Z AUTO 00000KT 9SM FEW080 26/22 A3004 RMK AO2 SLP169 60000 T02560222 10289 20256 56007
KSEG 062253Z AUTO 14004KT 10SM FEW029 SCT046 BKN060 27/21 A3004 RMK AO2 RAB42E51 SLP169 P0000 T02670211
KSEG 062153Z AUTO 00000KT 10SM FEW060 28/21 A3005 RMK AO2 SLP172 T02780206
KSEG 062053Z AUTO 13007KT 10SM FEW039 BKN070 28/21 A3006 RMK AO2 SLP176 T02780206 56016
KSEG 061953Z AUTO 15005KT 9SM FEW034 BKN047 28/21 A3008 RMK AO2 SLP181 T02830206
KSEG 061853Z AUTO 16006KT 8SM BKN041 28/21 A3009 RMK AO2 SLP185 T02780206
KSEG 061753Z AUTO 15005KT 8SM SCT033 BKN060 BKN110 27/21 A3011 RMK AO2 SLP192 60000 T02720206 10272 20206 58011
KSEG 061653Z AUTO 20004KT 8SM FEW026 BKN070 27/21 A3012 RMK AO2 SLP197 T02670206
KSEG 061621Z AUTO 18006KT 8SM FEW024 SCT033 BKN043 27/22 A3013 RMK AO2 T02670217
KSEG 061553Z AUTO VRB05KT 8SM SCT021 BKN028 26/21 A3014 RMK AO2 SLP204 T02560206
KSEG 061551Z AUTO VRB04KT 8SM SCT021 BKN028 BKN032 26/21 A3014 RMK AO2
KSEG 061513Z AUTO 15005KT 8SM SCT018 26/21 A3014 RMK AO2 T02560211
KSEG 061500Z AUTO VRB04KT 7SM SCT016 BKN020 25/21 A3014 RMK AO2 T02500211
KSEG 061453Z AUTO 00000KT 7SM BKN013 BKN018 24/21 A3014 RMK AO2 SLP203 60000 T02390206 58006
KSEG 061353Z AUTO 00000KT 7SM OVC014 22/19 A3015 RMK AO2 SLP208 T02220189
KSEG 061329Z AUTO 00000KT 7SM OVC014 22/19 A3016 RMK AO2 T02170189
KSEG 061253Z AUTO 00000KT 6SM BR OVC015 21/19 A3015 RMK AO2 RAB02E38 SLP209 P0000 T02110189